Flight Track Log - Related Links

Times and Time Zones

All times are in EDT time to prevent confusion due to time zone crossing. See the EJA941 flight status page for this flight to view local times or setup timezone preferences in your user account.

Time Position Orientation Groundspeed Altitude Reporting Facility
EDT Latitude Longitude Course Direction KTS MPH feet Rate Location/Type
Thu 03:13:01 PM 33.6000 -111.9333 299° West 188 216 2,600  Level Phoenix TRACON
Thu 03:13:58 PM 33.6236 -111.9850 299° West 224 258 5,500 2,034 Climbing Albuquerque Center
Thu 03:14:59 PM 33.6753 -111.9769 North 239 275 6,600 1,854 Climbing Albuquerque Center
Thu 03:16:01 PM 33.7206 -111.9208 46° Northeast 238 274 9,300 2,177 Climbing Albuquerque Center
Thu 03:17:03 PM 33.7172 -111.8017 92° East 304 350 11,100 1,645 Climbing Albuquerque Center
Thu 03:18:05 PM 33.7108 -111.6847 94° East 342 394 12,700 1,694 Climbing Albuquerque Center
Thu 03:19:07 PM 33.7039 -111.5617 94° East 366 421 14,600 1,790 Climbing Albuquerque Center
Thu 03:20:09 PM 33.6969 -111.4356 94° East 377 434 16,400 1,694 Climbing Albuquerque Center
Thu 03:21:11 PM 33.6903 -111.3033 93° East 392 451 18,100 1,839 Climbing Albuquerque Center
Thu 03:22:13 PM 33.7150 -111.1411 80° East 412 474 20,200 1,902 Climbing Albuquerque Center
Thu 03:23:14 PM 33.7469 -111.0053 74° East 422 486 22,000 1,756 Climbing Albuquerque Center
Thu 03:24:16 PM 33.7783 -110.8625 75° East 436 502 23,800 1,790 Climbing Albuquerque Center
Thu 03:25:18 PM 33.8119 -110.7167 74° East 447 514 25,700 1,839 Climbing Albuquerque Center
Thu 03:26:20 PM 33.8456 -110.5658 75° East 461 531 27,600 2,226 Climbing Albuquerque Center
Thu 03:27:22 PM 33.8797 -110.4150 75° East 466 536 30,300 2,516 Climbing Albuquerque Center
Thu 03:28:24 PM 33.9136 -110.2628 75° East 468 539 32,800 1,805 Climbing Albuquerque Center
Thu 03:29:25 PM 33.9539 -110.0775 75° East 473 544 34,000 1,805 Climbing Albuquerque Center
Thu 03:30:27 PM 33.9886 -109.9175 75° East 488 562 36,500 1,887 Climbing Albuquerque Center
Thu 03:31:29 PM 34.0239 -109.7528 75° East 493 567 37,900 1,500 Climbing Albuquerque Center
Thu 03:32:31 PM 34.0631 -109.5711 75° East 498 573 39,600 1,452 Climbing Albuquerque Center
Thu 03:33:33 PM 34.0944 -109.4206 76° East 492 566 40,900 683 Climbing Albuquerque Center
Thu 03:34:34 PM 34.1250 -109.2831 75° East 487 560 41,000 49 Climbing Albuquerque Center
Thu 03:35:36 PM 34.1667 -109.0883 75° East 494 568 41,000  Level Albuquerque Center
Thu 03:36:38 PM 34.2022 -108.9181 76° East 509 586 41,000  Level Albuquerque Center
Thu 03:37:40 PM 34.2383 -108.7444 76° East 524 603 41,000  Level Albuquerque Center
Thu 03:38:41 PM 34.2731 -108.5700 76° East 532 612 41,000  Level Albuquerque Center
Thu 03:39:43 PM 34.3119 -108.3828 76° East 536 617 41,000  Level Albuquerque Center
Thu 03:40:45 PM 34.3483 -108.2075 76° East 536 617 41,000  Level Albuquerque Center
Thu 03:41:47 PM 34.3836 -108.0319 76° East 538 619 41,000  Level Albuquerque Center
Thu 03:42:49 PM 34.4181 -107.8561 77° East 538 619 41,000  Level Albuquerque Center
Thu 03:43:51 PM 34.4606 -107.6447 76° East 540 621 41,000  Level Albuquerque Center
Thu 03:44:53 PM 34.4947 -107.4683 77° East 540 621 41,000  Level Albuquerque Center
Thu 03:45:54 PM 34.5289 -107.2917 77° East 540 621 41,000  Level Albuquerque Center
Thu 03:46:56 PM 34.5631 -107.1131 77° East 545 627 41,000  Level Albuquerque Center
Thu 03:47:58 PM 34.5969 -106.9342 77° East 548 631 41,000  Level Albuquerque Center
Thu 03:49:00 PM 34.6292 -106.7564 78° East 546 628 41,000  Level Albuquerque Center
Thu 03:50:02 PM 34.6697 -106.5450 77° East 544 626 41,000  Level Albuquerque Center
Thu 03:51:04 PM 34.7022 -106.3678 77° East 543 625 41,000  Level Albuquerque Center
Thu 03:52:06 PM 34.7339 -106.1939 77° East 542 624 41,000  Level Albuquerque Center
Thu 03:53:08 PM 34.7736 -105.9856 77° East 540 621 41,000  Level Albuquerque Center
Thu 03:54:10 PM 34.8047 -105.8031 78° East 543 625 41,000  Level Albuquerque Center
Thu 03:55:12 PM 34.8367 -105.6233 78° East 541 623 41,000  Level Albuquerque Center
Thu 03:56:14 PM 34.8694 -105.4436 77° East 540 621 41,000  Level Albuquerque Center
Thu 03:57:16 PM 34.9025 -105.2600 78° East 547 629 41,000  Level Albuquerque Center
Thu 03:58:18 PM 34.9328 -105.0797 78° East 543 625 41,000  Level Albuquerque Center
Thu 03:59:20 PM 34.9650 -104.8986 78° East 542 624 41,000  Level Albuquerque Center
Thu 04:00:21 PM 35.0011 -104.6886 78° East 540 621 41,000  Level Albuquerque Center
Thu 04:01:23 PM 35.0314 -104.5083 78° East 540 621 41,000  Level Albuquerque Center
Thu 04:02:25 PM 35.0611 -104.3278 79° East 542 624 41,000  Level Albuquerque Center
Thu 04:03:27 PM 35.0967 -104.1314 77° East 545 627 41,000  Level Albuquerque Center
Thu 04:04:29 PM 35.1256 -103.9511 79° East 542 624 41,000  Level Albuquerque Center
Thu 04:05:31 PM 35.1564 -103.7597 79° East 542 624 41,000  Level Albuquerque Center
Thu 04:06:33 PM 35.1839 -103.5772 80° East 543 625 41,000  Level Albuquerque Center
Thu 04:07:35 PM 35.1906 -103.3900 87° East 546 628 41,000  Level Albuquerque Center
Thu 04:08:37 PM 35.1964 -103.2039 88° East 545 627 41,000  Level Albuquerque Center
Thu 04:09:39 PM 35.2019 -103.0169 88° East 546 628 41,000  Level Albuquerque Center
Thu 04:10:40 PM 35.2078 -102.8114 88° East 549 632 41,000  Level Albuquerque Center
Thu 04:11:42 PM 35.2131 -102.6239 88° East 552 635 41,000  Level Albuquerque Center
Thu 04:12:44 PM 35.2181 -102.4367 88° East 553 636 41,000  Level Albuquerque Center
Thu 04:13:46 PM 35.2225 -102.2492 88° East 552 635 41,000  Level Albuquerque Center
Thu 04:14:48 PM 35.2269 -102.0628 88° East 551 634 41,000  Level Albuquerque Center
Thu 04:15:50 PM 35.2317 -101.8531 88° East 549 632 41,000  Level Albuquerque Center
Thu 04:16:52 PM 35.2364 -101.6656 88° East 549 632 41,000  Level Albuquerque Center
Thu 04:17:54 PM 35.2461 -101.4761 86° East 552 635 41,000  Level Albuquerque Center
Thu 04:18:56 PM 35.2533 -101.2986 87° East 550 633 41,000  Level Albuquerque Center
Thu 04:19:58 PM 35.2622 -101.0747 87° East 551 634 41,000  Level Albuquerque Center
Thu 04:21:00 PM 35.2703 -100.8889 87° East 550 633 41,000  Level Albuquerque Center
Thu 04:22:02 PM 35.2778 -100.7033 87° East 549 632 41,000  Level Albuquerque Center
Thu 04:23:04 PM 35.2853 -100.5056 87° East 548 631 41,000  Level Albuquerque Center
Thu 04:24:06 PM 35.2925 -100.3206 87° East 546 628 41,000  Level Albuquerque Center
Thu 04:25:08 PM 35.2989 -100.1364 88° East 544 626 41,000  Level Albuquerque Center
Thu 04:26:10 PM 35.3053 -99.9514 88° East 544 626 41,000  Level Albuquerque Center
Thu 04:27:12 PM 35.3117 -99.7678 88° East 542 624 41,000  Level Albuquerque Center
Thu 04:28:14 PM 35.3181 -99.5456 88° East 546 628 41,000  Level Albuquerque Center
Thu 04:29:15 PM 35.3228 -99.3600 88° East 547 629 41,000  Level Albuquerque Center
Thu 04:29:50 PM 35.3258 -99.2533 88° East 543 625 41,000  Level Fort Worth Center
Thu 04:30:50 PM 35.3286 -99.0600 89° East 549 632 41,000  Level Fort Worth Center
Thu 04:31:49 PM 35.3350 -98.8742 88° East 549 632 41,000  Level Fort Worth Center
Thu 04:32:50 PM 35.3392 -98.6858 88° East 549 632 41,000  Level Fort Worth Center
Thu 04:33:50 PM 35.3431 -98.4953 89° East 549 632 41,000  Level Fort Worth Center
Thu 04:34:50 PM 35.3464 -98.3322 89° East 544 626 41,000  Level Fort Worth Center
Thu 04:35:50 PM 35.3497 -98.1414 89° East 550 633 41,000  Level Fort Worth Center
Thu 04:36:50 PM 35.3528 -97.9506 89° East 550 633 41,000  Level Fort Worth Center
Thu 04:37:50 PM 35.3556 -97.7622 89° East 550 633 41,000  Level Fort Worth Center
Thu 04:38:50 PM 35.3561 -97.5511 90° East 557 641 41,000  Level Fort Worth Center
Thu 04:39:50 PM 35.3728 -97.3447 84° East 576 663 41,000  Level Fort Worth Center
Thu 04:40:50 PM 35.3642 -97.1539 93° East 570 656 41,000  Level Fort Worth Center
Thu 04:41:50 PM 35.3700 -96.9631 88° East 570 656 41,000  Level Fort Worth Center
Thu 04:42:50 PM 35.3711 -96.7669 90° East 570 656 41,000  Level Fort Worth Center
Thu 04:43:50 PM 35.3742 -96.5733 89° East 570 656 41,000  Level Fort Worth Center
Thu 04:44:50 PM 35.3789 -96.3747 88° East 570 656 41,000  Level Fort Worth Center
Thu 04:45:50 PM 35.3814 -96.1736 89° East 576 663 41,000  Level Fort Worth Center
Thu 04:46:50 PM 35.3833 -95.9750 89° East 576 663 41,000  Level Fort Worth Center
Thu 04:47:50 PM 35.3856 -95.7967 89° East 576 663 41,000  Level Fort Worth Center
Thu 04:48:50 PM 35.3869 -95.5981 89° East 581 669 41,000  Level Fort Worth Center
Thu 04:50:20 PM 35.3875 -95.2925 90° East 591 680 41,000  Level Memphis Center
Thu 04:51:20 PM 35.3869 -95.0889 90° East 591 680 41,000  Level Memphis Center
Thu 04:52:21 PM 35.3881 -94.8903 90° East 591 680 41,000  Level Memphis Center
Thu 04:53:21 PM 35.3869 -94.6864 90° East 591 680 41,000  Level Memphis Center
Thu 04:54:21 PM 35.3875 -94.4853 90° East 591 680 41,000  Level Memphis Center
Thu 04:55:21 PM 35.3858 -94.2817 91° East 591 680 41,000  Level Memphis Center
Thu 04:56:20 PM 35.3733 -94.0797 94° East 591 680 41,000 -605 Level Memphis Center
Thu 04:57:20 PM 35.3581 -93.8856 95° East 584 672 39,800 -992 Descending Memphis Center
Thu 04:58:21 PM 35.3464 -93.6994 94° East 569 655 39,000 -397 Descending Memphis Center
Thu 04:59:21 PM 35.3328 -93.5028 95° East 569 655 39,000  Level Memphis Center
Thu 05:00:20 PM 35.3172 -93.2886 95° East 576 663 39,000  Level Memphis Center
Thu 05:01:21 PM 35.3008 -93.0844 96° East 582 670 39,000  Level Memphis Center
Thu 05:02:21 PM 35.2861 -92.9033 96° East 597 687 39,000  Level Memphis Center
Thu 05:03:21 PM 35.2711 -92.7044 95° East 597 687 39,000  Level Memphis Center
Thu 05:04:21 PM 35.2519 -92.4981 96° East 597 687 39,000  Level Memphis Center
Thu 05:05:21 PM 35.2325 -92.2764 96° East 597 687 39,000  Level Memphis Center
Thu 05:06:21 PM 35.2167 -92.0753 95° East 597 687 39,000  Level Memphis Center
Thu 05:07:21 PM 35.1983 -91.8742 96° East 597 687 39,000  Level Memphis Center
Thu 05:08:21 PM 35.1800 -91.6731 96° East 597 687 39,000  Level Memphis Center
Thu 05:09:21 PM 35.1611 -91.4694 96° East 597 687 39,000  Level Memphis Center
Thu 05:10:21 PM 35.1458 -91.2714 95° East 592 681 39,000  Level Memphis Center
Thu 05:11:21 PM 35.1264 -91.0681 97° East 598 688 39,000  Level Memphis Center
Thu 05:12:21 PM 35.1064 -90.8647 97° East 598 688 39,000  Level Memphis Center
Thu 05:13:21 PM 35.0864 -90.6617 97° East 598 688 39,000  Level Memphis Center
Thu 05:14:21 PM 35.0678 -90.4839 97° East 598 688 39,000  Level Memphis Center
Thu 05:15:21 PM 35.0469 -90.2783 97° East 598 688 39,000  Level Memphis Center
Thu 05:16:21 PM 35.0278 -90.0806 97° East 598 688 39,000  Level Memphis Center
Thu 05:17:21 PM 35.0128 -89.8806 95° East 598 688 39,000  Level Memphis Center
Thu 05:18:21 PM 34.9969 -89.6497 95° East 604 695 39,000  Level Memphis Center
Thu 05:19:21 PM 34.9747 -89.4497 98° East 611 703 39,000  Level Memphis Center
Thu 05:20:21 PM 34.9586 -89.2497 96° East 605 696 39,000  Level Memphis Center
Thu 05:21:21 PM 34.9419 -89.0475 96° East 595 685 39,000  Level Memphis Center
Thu 05:22:21 PM 34.9250 -88.8475 96° East 595 685 39,000  Level Memphis Center
Thu 05:23:21 PM 34.9103 -88.6706 96° East 595 685 39,000  Level Memphis Center
Thu 05:24:21 PM 34.8906 -88.4583 96° East 590 679 39,000  Level Memphis Center
Thu 05:25:21 PM 34.8747 -88.2611 96° East 583 671 39,000 -150 Level Memphis Center
Thu 05:26:21 PM 34.8592 -88.0819 96° East 583 671 38,700 -700 Descending Memphis Center
Thu 05:27:21 PM 34.8411 -87.8953 97° East 567 652 37,600 -1,400 Descending Memphis Center
Thu 05:28:21 PM 34.8267 -87.7133 95° East 545 627 35,900 -1,844 Descending Memphis Center
Thu 05:30:46 PM 34.7844 -87.2911 97° East 505 581 31,300 -1,434 Descending Atlanta Center
Thu 05:31:46 PM 34.7681 -87.1136 96° East 510 587 31,000 -150 Descending Atlanta Center
Thu 05:32:46 PM 34.7514 -86.9358 96° East 515 593 31,000  Level Atlanta Center
Thu 05:33:46 PM 34.7219 -86.7631 102° East 525 604 31,000  Level Atlanta Center
Thu 05:34:46 PM 34.6778 -86.5900 107° East 525 604 31,000  Level Atlanta Center
Thu 05:35:46 PM 34.6311 -86.4194 108° East 530 610 31,000  Level Atlanta Center
Thu 05:36:46 PM 34.5842 -86.2489 108° East 535 616 31,000 -1,300 Level Atlanta Center
Thu 05:37:46 PM 34.5369 -86.0839 109° East 529 609 28,400 -2,700 Descending Atlanta Center
Thu 05:38:46 PM 34.4917 -85.9164 108° East 523 602 25,600 -2,550 Descending Atlanta Center
Thu 05:39:46 PM 34.4519 -85.7719 108° East 517 595 23,300 -2,450 Descending Atlanta Center
Thu 05:40:46 PM 34.4061 -85.6150 109° East 504 580 20,700 -2,700 Descending Atlanta Center
Thu 05:41:46 PM 34.3644 -85.4506 107° East 477 549 17,900 -2,500 Descending Atlanta Center
Thu 05:42:46 PM 34.3742 -85.3197 85° East 426 490 15,700 -2,150 Descending Atlanta Center
Thu 05:43:46 PM 34.3711 -85.1939 92° East 385 443 13,600 -1,950 Descending Atlanta Center
Thu 05:44:46 PM 34.3219 -85.0928 120° Southeast 344 396 11,800 -1,700 Descending Atlanta Center
Thu 05:45:46 PM 34.2686 -84.9989 124° Southeast 339 390 10,200 -1,550 Descending Atlanta Center
Thu 05:46:46 PM 34.2253 -84.9131 121° Southeast 328 377 8,700 -1,100 Descending Atlanta Center
Thu 05:47:46 PM 34.1694 -84.8447 135° Southeast 286 329 8,000 -550 Descending Atlanta Center
Thu 05:48:46 PM 34.1281 -84.7842 130° Southeast 274 315 7,600 -850 Descending Atlanta Center
Thu 05:49:46 PM 34.0992 -84.7136 116° Southeast 246 283 6,300 -1,450 Descending Atlanta Center
Thu 05:50:46 PM 34.0725 -84.6456 115° Southeast 222 255 4,700 -1,500 Descending Atlanta Center
Thu 05:51:46 PM 34.0706 -84.5781 92° East 206 237 3,300 -1,050 Descending Atlanta Center
Thu 05:52:46 PM 34.0689 -84.5153 92° East 193 222 2,600 -450 Descending Atlanta Center
Thu 05:53:46 PM 34.0333 -84.5100 173° South 114 131 2,400 -400 Descending Atlanta Center
Thu 05:54:46 PM 34.0122 -84.5500 238° Southwest 109 125 1,800 -600 Descending Atlanta Center

Login

Don't have an account? Register now (free) for customized features, flight alerts, and more!